createdAt,value
2023-03-08T00:01:14.599Z,98199.66
2023-03-08T00:02:37.914Z,98224.44
2023-03-08T00:04:00.615Z,98236.63
2023-03-08T00:05:23.164Z,98242.97
2023-03-08T00:06:44.336Z,98228.66
2023-03-08T00:08:08.853Z,98244.72
2023-03-08T00:09:31.361Z,98241.59
2023-03-08T00:10:55.222Z,98253.00
2023-03-08T00:12:19.414Z,98263.00
2023-03-08T00:13:42.348Z,98260.22
2023-03-08T00:15:04.767Z,98263.53
2023-03-08T00:16:26.151Z,98269.06
2023-03-08T00:17:48.433Z,98233.53
2023-03-08T00:19:09.619Z,98265.28
2023-03-08T00:20:32.321Z,98260.50
2023-03-08T00:21:54.575Z,98265.22
2023-03-08T00:23:15.619Z,98275.84
2023-03-08T00:24:41.019Z,98261.78
2023-03-08T00:26:04.509Z,98269.41
2023-03-08T00:27:27.238Z,98268.78
2023-03-08T00:28:49.384Z,98273.47
2023-03-08T00:30:13.283Z,98272.00
2023-03-08T00:31:37.125Z,98266.38
2023-03-08T00:32:58.188Z,98264.72
2023-03-08T00:34:20.690Z,98271.06
2023-03-08T00:35:42.063Z,98248.56
2023-03-08T00:37:05.045Z,98272.41
2023-03-08T00:38:26.828Z,98265.34
2023-03-08T00:39:53.151Z,98272.31
2023-03-08T00:41:16.031Z,98274.16
2023-03-08T00:42:38.364Z,98239.81
2023-03-08T00:44:01.407Z,98268.25
2023-03-08T00:45:22.553Z,98239.34
2023-03-08T00:46:44.973Z,98276.91
2023-03-08T00:48:08.440Z,98278.91
2023-03-08T00:49:31.086Z,98283.56
2023-03-08T00:50:53.778Z,98280.09
2023-03-08T00:52:16.088Z,98271.47
2023-03-08T00:53:39.958Z,98279.44
2023-03-08T00:55:01.272Z,98274.31
2023-03-08T00:56:25.310Z,98270.34
2023-03-08T00:57:46.823Z,98273.00
2023-03-08T00:59:09.380Z,98260.34
2023-03-08T01:00:31.793Z,98282.84
2023-03-08T01:01:54.526Z,98274.94
2023-03-08T01:03:17.389Z,98279.69
2023-03-08T01:04:39.943Z,98291.47
2023-03-08T01:06:08.808Z,98289.78
2023-03-08T01:07:32.324Z,98295.09
2023-03-08T01:08:55.447Z,98288.03
2023-03-08T01:10:18.728Z,98306.56
2023-03-08T01:11:43.671Z,98308.78
2023-03-08T01:13:09.734Z,98303.63
2023-03-08T01:14:31.409Z,98314.91
2023-03-08T01:15:54.137Z,98312.63
2023-03-08T01:17:16.409Z,98320.44
2023-03-08T01:18:39.065Z,98316.81
2023-03-08T01:20:01.594Z,98315.63
2023-03-08T01:21:24.895Z,98314.16
2023-03-08T01:22:49.398Z,98307.38
2023-03-08T01:24:12.855Z,98317.63
2023-03-08T01:25:35.119Z,98317.00
2023-03-08T01:27:01.132Z,98317.00
2023-03-08T01:28:22.075Z,98315.34
2023-03-08T01:29:44.875Z,98316.34
2023-03-08T01:31:17.905Z,98318.16
2023-03-08T01:32:39.418Z,98312.03
2023-03-08T01:34:02.002Z,98301.75
2023-03-08T01:35:23.207Z,98302.94
2023-03-08T01:36:45.627Z,98303.75
2023-03-08T01:38:06.790Z,98300.44
2023-03-08T01:39:29.060Z,98309.09
2023-03-08T01:40:50.369Z,98310.91
2023-03-08T01:42:14.125Z,98274.69
2023-03-08T01:43:37.789Z,98311.09
2023-03-08T01:45:04.799Z,98313.44
2023-03-08T01:46:31.376Z,98307.78
2023-03-08T01:48:22.074Z,98320.25
2023-03-08T01:49:55.239Z,98315.09
2023-03-08T01:51:22.917Z,98300.25
2023-03-08T01:52:50.375Z,98325.06
2023-03-08T01:54:18.997Z,98323.25
2023-03-08T01:55:40.435Z,98327.72
2023-03-08T01:57:06.017Z,98325.63
2023-03-08T01:58:29.636Z,98335.25
2023-03-08T01:59:54.232Z,98335.41
2023-03-08T02:01:15.785Z,98344.84
2023-03-08T02:02:43.603Z,98357.53
2023-03-08T02:04:06.439Z,98347.06
2023-03-08T02:05:30.924Z,98355.19
2023-03-08T02:07:01.136Z,98347.09
2023-03-08T02:08:22.379Z,98353.25
2023-03-08T02:09:47.693Z,98352.59
2023-03-08T02:11:10.860Z,98360.19
2023-03-08T02:12:34.038Z,98348.75
2023-03-08T02:13:57.339Z,98341.78
2023-03-08T02:15:22.810Z,98342.97
2023-03-08T02:16:49.462Z,98346.81
2023-03-08T02:18:11.170Z,98357.44
2023-03-08T02:19:42.889Z,98343.00
2023-03-08T02:21:04.732Z,98346.53
2023-03-08T02:22:29.892Z,98357.59
2023-03-08T02:23:52.974Z,98356.13
2023-03-08T02:25:17.214Z,98361.44
2023-03-08T02:26:40.861Z,98302.34
2023-03-08T02:28:05.141Z,98349.69
2023-03-08T02:29:26.768Z,98351.31
2023-03-08T02:30:51.472Z,98350.50
2023-03-08T02:32:14.447Z,98332.63
2023-03-08T02:33:35.731Z,98323.91
2023-03-08T02:34:58.499Z,98368.63
2023-03-08T02:36:19.602Z,98360.97
2023-03-08T02:37:42.049Z,98359.34
2023-03-08T02:39:06.161Z,98369.16
2023-03-08T02:40:27.781Z,98371.31
2023-03-08T02:41:51.445Z,98371.00
2023-03-08T02:43:14.400Z,98341.22
2023-03-08T02:44:35.883Z,98377.44
2023-03-08T02:46:02.998Z,98381.09
2023-03-08T02:47:47.165Z,98333.97
2023-03-08T02:49:11.337Z,98382.63
2023-03-08T02:50:38.856Z,98374.66
2023-03-08T02:52:04.252Z,98334.94
2023-03-08T02:53:26.397Z,98360.22
2023-03-08T02:54:49.121Z,98346.53
2023-03-08T02:56:11.514Z,98382.28
2023-03-08T02:57:32.852Z,98374.00
2023-03-08T02:58:55.136Z,98393.72
2023-03-08T03:00:18.532Z,98401.91
2023-03-08T03:01:41.289Z,98377.19
2023-03-08T03:03:05.601Z,98386.47
2023-03-08T03:04:31.139Z,98396.75
2023-03-08T03:05:57.057Z,98389.28
2023-03-08T03:07:34.228Z,98370.88
2023-03-08T03:08:56.858Z,98391.78
2023-03-08T03:10:21.128Z,98367.91
2023-03-08T03:11:43.943Z,98396.28
2023-03-08T03:13:06.802Z,98367.63
2023-03-08T03:14:28.744Z,98397.09
2023-03-08T03:15:51.992Z,98379.34
2023-03-08T03:17:13.465Z,98392.75
2023-03-08T03:18:35.610Z,98399.09
2023-03-08T03:19:56.758Z,98371.28
2023-03-08T03:21:19.474Z,98408.03
2023-03-08T03:22:41.697Z,98400.91
2023-03-08T03:24:03.264Z,98408.03
2023-03-08T03:25:39.937Z,98409.72
2023-03-08T03:27:06.604Z,98412.38
2023-03-08T03:28:29.621Z,98407.22
2023-03-08T03:29:54.944Z,98391.81
2023-03-08T03:31:19.451Z,98419.66
2023-03-08T03:32:42.087Z,98411.53
2023-03-08T03:34:05.325Z,98432.94
2023-03-08T03:35:28.082Z,98423.50
2023-03-08T03:36:51.305Z,98420.03
2023-03-08T03:38:13.896Z,98430.28
2023-03-08T03:39:39.762Z,98425.50
2023-03-08T03:41:07.060Z,98428.66
2023-03-08T03:42:29.477Z,98438.25
2023-03-08T03:44:01.048Z,98441.06
2023-03-08T03:45:23.380Z,98433.66
2023-03-08T03:46:46.117Z,98436.31
2023-03-08T03:48:10.617Z,98425.69
2023-03-08T03:49:33.293Z,98445.75
2023-03-08T03:50:56.034Z,98437.59
2023-03-08T03:52:18.640Z,98437.78
2023-03-08T03:53:50.633Z,98434.47
2023-03-08T03:55:13.997Z,98441.63
2023-03-08T03:56:38.006Z,98439.47
2023-03-08T03:58:01.876Z,98435.47
2023-03-08T03:59:25.623Z,98448.25
2023-03-08T04:00:49.104Z,98459.03
2023-03-08T04:02:21.844Z,98434.03
2023-03-08T04:03:48.982Z,98445.63
2023-03-08T04:05:11.301Z,98452.41
2023-03-08T04:06:35.354Z,98453.59
2023-03-08T04:08:00.263Z,98441.66
2023-03-08T04:09:25.777Z,98462.53
2023-03-08T04:11:01.745Z,98455.41
2023-03-08T04:12:25.242Z,98445.97
2023-03-08T04:13:47.919Z,98472.66
2023-03-08T04:15:17.275Z,98469.34
2023-03-08T04:16:42.714Z,98472.81
2023-03-08T04:18:23.508Z,98472.16
2023-03-08T04:19:51.948Z,98466.53
2023-03-08T04:21:47.512Z,98462.41
2023-03-08T04:23:11.446Z,98468.38
2023-03-08T04:24:37.540Z,98471.50
2023-03-08T04:26:06.040Z,98457.91
2023-03-08T04:27:32.528Z,98469.19
2023-03-08T04:28:54.175Z,98462.06
2023-03-08T04:30:17.871Z,98465.56
2023-03-08T04:31:39.525Z,98466.53
2023-03-08T04:33:06.282Z,98454.59
2023-03-08T04:34:39.870Z,98456.94
2023-03-08T04:36:02.167Z,98454.28
2023-03-08T04:37:24.616Z,98424.09
2023-03-08T04:38:51.295Z,98456.09
2023-03-08T04:40:13.589Z,98456.78
2023-03-08T04:41:46.059Z,98478.47
2023-03-08T04:43:19.181Z,98455.94
2023-03-08T04:44:42.210Z,98473.84
2023-03-08T04:46:08.310Z,98464.72
2023-03-08T04:47:32.798Z,98446.31
2023-03-08T04:48:57.016Z,98422.28
2023-03-08T04:50:22.180Z,98450.47
2023-03-08T04:51:44.389Z,98470.84
2023-03-08T04:53:08.316Z,98471.69
2023-03-08T04:54:31.268Z,98475.53
2023-03-08T04:55:59.317Z,98478.00
2023-03-08T04:57:22.418Z,98481.31
2023-03-08T04:58:49.510Z,98479.97
2023-03-08T05:00:15.022Z,98480.16
2023-03-08T05:01:39.053Z,98479.16
2023-03-08T05:03:01.218Z,98480.66
2023-03-08T05:04:26.357Z,98484.97
2023-03-08T05:05:49.092Z,98476.34
2023-03-08T05:07:11.413Z,98476.81
2023-03-08T05:08:33.188Z,98456.59
2023-03-08T05:09:55.529Z,98482.97
2023-03-08T05:11:22.690Z,98478.50
2023-03-08T05:12:44.291Z,98461.94
2023-03-08T05:14:08.632Z,98481.97
2023-03-08T05:15:30.278Z,98481.47
2023-03-08T05:16:55.825Z,98481.16
2023-03-08T05:18:17.006Z,98485.13
2023-03-08T05:19:39.747Z,98439.03
2023-03-08T05:21:05.300Z,98496.41
2023-03-08T05:22:28.931Z,98492.28
2023-03-08T05:23:53.087Z,98488.13
2023-03-08T05:25:19.863Z,98498.25
2023-03-08T05:26:42.357Z,98471.53
2023-03-08T05:28:06.052Z,98503.03
2023-03-08T05:29:30.422Z,98499.75
2023-03-08T05:31:02.773Z,98498.25
2023-03-08T05:32:26.255Z,98503.56
2023-03-08T05:33:51.497Z,98494.91
2023-03-08T05:35:21.741Z,98510.16
2023-03-08T05:36:46.852Z,98496.72
2023-03-08T05:38:08.084Z,98464.06
2023-03-08T05:39:31.183Z,98509.00
2023-03-08T05:41:06.505Z,98485.97
2023-03-08T05:42:32.745Z,98522.59
2023-03-08T05:43:55.617Z,98512.31
2023-03-08T05:45:18.945Z,98516.13
2023-03-08T05:46:41.390Z,98524.63
2023-03-08T05:48:04.613Z,98492.75
2023-03-08T05:49:29.503Z,98512.97
2023-03-08T05:50:52.951Z,98491.44
2023-03-08T05:52:17.310Z,98523.44
2023-03-08T05:53:39.476Z,98486.59
2023-03-08T05:55:01.715Z,98516.13
2023-03-08T05:56:25.509Z,98522.78
2023-03-08T05:57:58.107Z,98500.69
2023-03-08T05:59:20.586Z,98513.78
2023-03-08T06:00:44.465Z,98524.59
2023-03-08T06:02:08.937Z,98504.50
2023-03-08T06:03:48.274Z,98515.25
2023-03-08T06:05:13.623Z,98529.38
2023-03-08T06:06:36.707Z,98529.03
2023-03-08T06:08:01.158Z,98523.88
2023-03-08T06:09:22.690Z,98538.66
2023-03-08T06:10:45.216Z,98534.31
2023-03-08T06:12:08.509Z,98535.63
2023-03-08T06:13:31.187Z,98537.63
2023-03-08T06:14:52.197Z,98524.97
2023-03-08T06:16:18.853Z,98518.34
2023-03-08T06:17:41.318Z,98511.50
2023-03-08T06:19:04.566Z,98536.69
2023-03-08T06:20:28.747Z,98534.53
2023-03-08T06:21:51.169Z,98542.47
2023-03-08T06:23:12.196Z,98535.28
2023-03-08T06:24:34.744Z,98543.72
2023-03-08T06:26:01.266Z,98540.59
2023-03-08T06:27:25.796Z,98489.97
2023-03-08T06:28:52.462Z,98540.38
2023-03-08T06:30:14.870Z,98541.34
2023-03-08T06:31:43.714Z,98525.38
2023-03-08T06:33:07.460Z,98548.75
2023-03-08T06:34:29.865Z,98537.31
2023-03-08T06:35:59.700Z,98553.88
2023-03-08T06:37:22.542Z,98555.66
2023-03-08T06:38:45.121Z,98557.91
2023-03-08T06:40:09.420Z,98537.97
2023-03-08T06:41:32.154Z,98558.34
2023-03-08T06:42:56.436Z,98553.78
2023-03-08T06:44:18.835Z,98526.94
2023-03-08T06:45:41.539Z,98566.50
2023-03-08T06:47:06.143Z,98552.19
2023-03-08T06:48:27.738Z,98544.66
2023-03-08T06:49:50.869Z,98564.91
2023-03-08T06:51:13.661Z,98555.97
2023-03-08T06:52:39.675Z,98569.41
2023-03-08T06:54:03.510Z,98568.50
2023-03-08T06:55:26.427Z,98570.44
2023-03-08T06:56:49.084Z,98552.16
2023-03-08T06:58:10.674Z,98560.72
2023-03-08T06:59:32.942Z,98570.47
2023-03-08T07:00:55.517Z,98577.09
2023-03-08T07:02:19.501Z,98574.88
2023-03-08T07:03:42.121Z,98570.88
2023-03-08T07:05:04.802Z,98569.13
2023-03-08T07:06:27.311Z,98571.03
2023-03-08T07:07:49.988Z,98559.88
2023-03-08T07:09:13.560Z,98561.72
2023-03-08T07:10:39.310Z,98563.91
2023-03-08T07:12:01.818Z,98571.63
2023-03-08T07:13:24.422Z,98566.56
2023-03-08T07:14:49.423Z,98575.41
2023-03-08T07:16:14.622Z,98572.44
2023-03-08T07:17:38.682Z,98546.66
2023-03-08T07:19:02.486Z,98575.72
2023-03-08T07:20:26.634Z,98584.88
2023-03-08T07:21:49.012Z,98566.84
2023-03-08T07:23:11.333Z,98566.09
2023-03-08T07:24:33.570Z,98580.13
2023-03-08T07:25:56.440Z,98588.97
2023-03-08T07:27:19.130Z,98577.47
2023-03-08T07:28:43.383Z,98522.59
2023-03-08T07:30:09.838Z,98569.75
2023-03-08T07:31:36.293Z,98571.47
2023-03-08T07:32:59.275Z,98530.66
2023-03-08T07:34:21.604Z,98579.06
2023-03-08T07:35:43.950Z,98581.94
2023-03-08T07:37:07.612Z,98586.25
2023-03-08T07:38:29.725Z,98598.09
2023-03-08T07:39:53.332Z,98565.69
2023-03-08T07:41:15.843Z,98598.97
2023-03-08T07:42:38.066Z,98595.56
2023-03-08T07:44:19.537Z,98593.06
2023-03-08T07:45:42.340Z,98592.28
2023-03-08T07:47:04.804Z,98598.09
2023-03-08T07:48:29.664Z,98592.16
2023-03-08T07:49:52.349Z,98595.47
2023-03-08T07:51:15.004Z,98579.94
2023-03-08T07:52:37.187Z,98597.31
2023-03-08T07:53:59.515Z,98582.47
2023-03-08T07:55:22.435Z,98585.63
2023-03-08T07:56:44.819Z,98596.06
2023-03-08T07:58:07.276Z,98593.22
2023-03-08T07:59:29.737Z,98588.34
2023-03-08T08:00:52.024Z,98561.81
2023-03-08T08:02:15.933Z,98593.47
2023-03-08T08:03:40.831Z,98583.03
2023-03-08T08:05:04.189Z,98572.97
2023-03-08T08:06:27.187Z,98549.19
2023-03-08T08:07:49.916Z,98584.81
2023-03-08T08:09:14.895Z,98589.78
2023-03-08T08:10:37.783Z,98592.50
2023-03-08T08:12:00.399Z,98583.25
2023-03-08T08:13:22.500Z,98577.66
2023-03-08T08:14:45.369Z,98588.41
2023-03-08T08:16:08.795Z,98576.25
2023-03-08T08:17:31.373Z,98588.22
2023-03-08T08:18:55.892Z,98602.47
2023-03-08T08:20:18.769Z,98554.16
2023-03-08T08:21:41.406Z,98603.28
2023-03-08T08:23:09.471Z,98602.72
2023-03-08T08:24:33.554Z,98572.38
2023-03-08T08:25:56.603Z,98601.25
2023-03-08T08:27:22.612Z,98588.44
2023-03-08T08:28:46.827Z,98595.84
2023-03-08T08:30:15.466Z,98591.72
2023-03-08T08:31:38.074Z,98567.72
2023-03-08T08:33:03.727Z,98569.97
2023-03-08T08:34:27.964Z,98598.44
2023-03-08T08:36:03.282Z,98610.63
2023-03-08T08:37:26.741Z,98580.00
2023-03-08T08:38:49.659Z,98604.38
2023-03-08T08:40:13.651Z,98580.81
2023-03-08T08:41:36.562Z,98574.97
2023-03-08T08:42:59.171Z,98585.03
2023-03-08T08:44:21.514Z,98599.47
2023-03-08T08:45:47.366Z,98571.59
2023-03-08T08:47:09.973Z,98580.66
2023-03-08T08:48:33.430Z,98590.38
2023-03-08T08:49:57.740Z,98584.63
2023-03-08T08:51:19.326Z,98582.94
2023-03-08T08:52:44.005Z,98584.97
2023-03-08T08:54:07.079Z,98575.66
2023-03-08T08:55:29.564Z,98530.66
2023-03-08T08:56:51.790Z,98585.56
2023-03-08T08:58:14.449Z,98581.06
2023-03-08T08:59:36.966Z,98576.94
2023-03-08T09:00:59.284Z,98593.84
2023-03-08T09:02:22.894Z,98591.22
2023-03-08T09:03:45.191Z,98585.13
2023-03-08T09:05:10.883Z,98594.31
2023-03-08T09:06:33.413Z,98597.28
2023-03-08T09:07:58.569Z,98580.03
2023-03-08T09:09:23.300Z,98584.63
2023-03-08T09:10:45.658Z,98590.38
2023-03-08T09:12:08.840Z,98580.47
2023-03-08T09:13:33.763Z,98587.09
2023-03-08T09:14:56.714Z,98588.13
2023-03-08T09:16:20.534Z,98560.66
2023-03-08T09:17:45.784Z,98579.41
2023-03-08T09:19:08.968Z,98560.63
2023-03-08T09:20:34.885Z,98576.09
2023-03-08T09:21:57.825Z,98561.16
2023-03-08T09:23:20.557Z,98579.75
2023-03-08T09:24:43.006Z,98560.75
2023-03-08T09:26:06.231Z,98576.63
2023-03-08T09:27:28.876Z,98565.34
2023-03-08T09:28:51.239Z,98561.81
2023-03-08T09:30:15.642Z,98555.78
2023-03-08T09:31:39.616Z,98558.91
2023-03-08T09:33:04.163Z,98557.41
2023-03-08T09:34:26.882Z,98562.63
2023-03-08T09:35:58.696Z,98566.44
2023-03-08T09:37:21.030Z,98567.13
2023-03-08T09:38:43.898Z,98574.94
2023-03-08T09:40:10.305Z,98535.03
2023-03-08T09:42:08.050Z,98546.09
2023-03-08T09:43:49.098Z,98528.09
2023-03-08T09:45:24.704Z,98535.91
2023-03-08T09:47:01.789Z,98538.03
2023-03-08T09:48:29.900Z,98517.22
2023-03-08T09:50:22.959Z,98512.56
2023-03-08T09:52:24.547Z,98555.94
2023-03-08T09:53:58.067Z,98547.72
2023-03-08T09:55:30.502Z,98508.28
2023-03-08T09:56:56.563Z,98496.97
2023-03-08T09:58:32.698Z,98544.97
2023-03-08T10:00:21.949Z,98496.84
2023-03-08T10:02:08.754Z,98537.38
2023-03-08T10:04:18.008Z,98522.56
2023-03-08T10:06:21.285Z,98495.13
2023-03-08T10:08:13.483Z,98483.28
2023-03-08T10:09:41.866Z,98501.94
2023-03-08T10:11:18.040Z,98478.91
2023-03-08T10:12:51.835Z,98478.84
2023-03-08T10:14:21.059Z,98512.31
2023-03-08T10:15:47.450Z,98514.44
2023-03-08T10:17:15.159Z,98523.63
2023-03-08T10:18:44.787Z,98526.94
2023-03-08T10:20:14.671Z,98528.47
2023-03-08T10:21:42.218Z,98503.44
2023-03-08T10:23:21.274Z,98508.91
2023-03-08T10:25:01.800Z,98532.56
2023-03-08T10:26:30.738Z,98481.69
2023-03-08T10:27:59.480Z,98525.41
2023-03-08T10:29:22.256Z,98487.56
2023-03-08T10:30:48.327Z,98524.38
2023-03-08T10:32:15.277Z,98487.25
2023-03-08T10:33:39.179Z,98511.19
2023-03-08T10:35:05.720Z,98505.53
2023-03-08T10:36:30.532Z,98512.41
2023-03-08T10:37:53.611Z,98495.88
2023-03-08T10:39:17.969Z,98472.56
2023-03-08T10:40:44.755Z,98507.88
2023-03-08T10:42:16.438Z,98487.16
2023-03-08T10:43:51.174Z,98482.94
2023-03-08T10:45:32.469Z,98474.13
2023-03-08T10:47:06.687Z,98472.53
2023-03-08T10:48:33.753Z,98471.66
2023-03-08T10:50:24.879Z,98455.19
2023-03-08T10:52:05.840Z,98476.81
2023-03-08T10:53:40.258Z,98497.50
2023-03-08T10:55:19.974Z,98484.84
2023-03-08T10:56:54.105Z,98496.59
2023-03-08T10:58:36.523Z,98499.16
2023-03-08T11:00:05.652Z,98496.31
2023-03-08T11:01:31.871Z,98481.09
2023-03-08T11:03:04.921Z,98473.72
2023-03-08T11:04:28.638Z,98457.44
2023-03-08T11:05:57.037Z,98487.38
2023-03-08T11:07:25.042Z,98476.47
2023-03-08T11:08:55.275Z,98442.25
2023-03-08T11:10:20.121Z,98482.06
2023-03-08T11:11:43.687Z,98428.25
2023-03-08T11:13:31.610Z,98470.13
2023-03-08T11:14:54.777Z,98461.88
2023-03-08T11:16:30.707Z,98468.72
2023-03-08T11:17:57.827Z,98416.94
2023-03-08T11:19:54.161Z,98432.59
2023-03-08T11:21:30.938Z,98459.41
2023-03-08T11:23:06.482Z,98419.22
2023-03-08T11:24:42.856Z,98447.84
2023-03-08T11:26:13.871Z,98448.47
2023-03-08T11:27:51.651Z,98449.47
2023-03-08T11:29:30.442Z,98381.59
2023-03-08T11:31:06.066Z,98426.06
2023-03-08T11:32:42.440Z,98408.94
2023-03-08T11:34:30.538Z,98435.13
2023-03-08T11:36:04.565Z,98371.38
2023-03-08T11:37:50.466Z,98409.31
2023-03-08T11:39:20.734Z,98406.66
2023-03-08T11:40:53.630Z,98424.81
2023-03-08T11:42:37.906Z,98363.78
2023-03-08T11:44:17.895Z,98429.56
2023-03-08T11:45:49.564Z,98390.22
2023-03-08T11:47:52.833Z,98417.88
2023-03-08T11:49:38.264Z,98425.47
2023-03-08T11:51:04.017Z,98411.94
2023-03-08T11:52:38.928Z,98416.91
2023-03-08T11:54:12.035Z,98367.06
2023-03-08T11:55:48.010Z,98391.38
2023-03-08T11:57:13.009Z,98367.50
2023-03-08T11:58:43.394Z,98382.66
2023-03-08T12:00:14.577Z,98391.16
2023-03-08T12:01:48.508Z,98353.25
2023-03-08T12:03:18.115Z,98341.88
2023-03-08T12:05:03.799Z,98359.75
2023-03-08T12:06:41.491Z,98351.97
2023-03-08T12:08:27.956Z,98366.19
2023-03-08T12:10:01.189Z,98339.81
2023-03-08T12:11:28.880Z,98322.09
2023-03-08T12:12:58.148Z,98329.31
2023-03-08T12:14:30.388Z,98330.53
2023-03-08T12:16:10.072Z,98339.38
2023-03-08T12:17:40.610Z,98347.78
2023-03-08T12:19:12.774Z,98322.28
2023-03-08T12:20:41.489Z,98365.66
2023-03-08T12:22:32.655Z,98350.88
2023-03-08T12:24:11.306Z,98360.28
2023-03-08T12:25:40.468Z,98339.72
2023-03-08T12:27:27.105Z,98309.28
2023-03-08T12:29:01.600Z,98336.66
2023-03-08T12:30:36.557Z,98323.25
2023-03-08T12:32:03.323Z,98315.66
2023-03-08T12:33:30.739Z,98340.13
2023-03-08T12:35:06.891Z,98290.34
2023-03-08T12:36:42.946Z,98307.59
2023-03-08T12:38:09.170Z,98297.31
2023-03-08T12:39:45.502Z,98305.91
2023-03-08T12:41:25.565Z,98316.03
2023-03-08T12:42:48.911Z,98338.88
2023-03-08T12:44:25.974Z,98329.59
2023-03-08T12:46:01.643Z,98310.66
2023-03-08T12:47:24.920Z,98319.94
2023-03-08T12:48:52.508Z,98273.25
2023-03-08T12:50:20.106Z,98316.22
2023-03-08T12:51:51.118Z,98274.47
2023-03-08T12:53:30.327Z,98315.63
2023-03-08T12:55:15.084Z,98257.41
2023-03-08T12:56:56.713Z,98276.53
2023-03-08T12:58:24.868Z,98294.91
2023-03-08T12:59:58.352Z,98265.44
2023-03-08T13:02:05.205Z,98294.25
2023-03-08T13:04:37.418Z,98264.00
2023-03-08T13:06:16.041Z,98283.88
2023-03-08T13:08:14.851Z,98273.88
2023-03-08T13:10:08.361Z,98273.56
2023-03-08T13:11:48.352Z,98263.88
2023-03-08T13:13:38.572Z,98238.34
2023-03-08T13:15:23.873Z,98278.91
2023-03-08T13:17:07.753Z,98229.44
2023-03-08T13:19:05.440Z,98260.84
2023-03-08T13:20:56.551Z,98205.94
2023-03-08T13:22:29.873Z,98248.00
2023-03-08T13:24:09.553Z,98247.38
2023-03-08T13:26:29.923Z,98237.84
2023-03-08T13:28:26.327Z,98260.56
2023-03-08T13:30:00.221Z,98230.34
2023-03-08T13:31:42.662Z,98204.03
2023-03-08T13:39:23.769Z,98244.41
2023-03-08T13:44:53.656Z,98163.72
2023-03-08T14:05:59.231Z,98169.25
2023-03-08T14:07:45.636Z,98199.28
2023-03-08T14:09:12.504Z,98155.28
2023-03-08T14:10:48.736Z,98195.56
2023-03-08T14:12:19.073Z,98179.16
2023-03-08T14:13:46.957Z,98183.47
2023-03-08T14:15:20.206Z,98139.88
2023-03-08T14:16:45.363Z,98134.56
2023-03-08T14:18:11.775Z,98168.09
2023-03-08T14:19:38.840Z,98170.19
2023-03-08T14:21:09.824Z,98186.44
2023-03-08T14:22:44.253Z,98141.19
2023-03-08T14:24:22.665Z,98170.81
2023-03-08T14:25:49.752Z,98172.06
2023-03-08T14:27:34.866Z,98184.59
2023-03-08T14:29:22.205Z,98173.09
2023-03-08T14:30:49.275Z,98188.31
2023-03-08T14:32:31.069Z,98185.44
2023-03-08T14:34:01.947Z,98190.59
2023-03-08T14:35:27.914Z,98190.97
2023-03-08T14:36:56.828Z,98179.25
2023-03-08T14:38:34.554Z,98161.56
2023-03-08T14:40:19.118Z,98134.59
2023-03-08T14:41:45.071Z,98127.78
2023-03-08T14:43:16.955Z,98166.88
2023-03-08T14:44:40.113Z,98178.81
2023-03-08T14:46:07.717Z,98178.78
2023-03-08T14:47:39.974Z,98181.25
2023-03-08T14:49:27.672Z,98124.03
2023-03-08T14:50:58.508Z,98129.56
2023-03-08T14:52:26.555Z,98169.50
2023-03-08T14:53:59.125Z,98145.59
2023-03-08T14:55:33.343Z,98123.13
2023-03-08T14:57:18.349Z,98119.41
2023-03-08T14:58:43.867Z,98142.44
2023-03-08T15:00:14.336Z,98175.84
2023-03-08T15:01:38.901Z,98181.59
2023-03-08T15:03:02.352Z,98183.63
2023-03-08T15:04:27.694Z,98157.06
2023-03-08T15:05:55.955Z,98145.53
2023-03-08T15:07:22.406Z,98160.13
2023-03-08T15:08:49.488Z,98141.19
2023-03-08T15:10:25.503Z,98131.28
2023-03-08T15:11:50.826Z,98127.16
2023-03-08T15:13:16.661Z,98144.44
2023-03-08T15:14:39.183Z,98149.19
2023-03-08T15:19:29.664Z,98155.31
2023-03-08T15:21:01.825Z,98099.69
2023-03-08T15:22:46.144Z,98096.22
2023-03-08T15:24:18.432Z,98115.19
2023-03-08T15:25:49.519Z,98139.06
2023-03-08T15:27:19.639Z,98102.41
2023-03-08T15:28:44.281Z,98088.81
2023-03-08T15:30:07.939Z,98126.09
2023-03-08T15:31:31.339Z,98127.53
2023-03-08T15:32:54.469Z,98137.22
2023-03-08T15:34:17.024Z,98126.31
2023-03-08T15:35:40.341Z,98124.84
2023-03-08T15:37:02.878Z,98136.97
2023-03-08T15:38:25.662Z,98122.31
2023-03-08T15:39:50.924Z,98129.97
2023-03-08T15:41:14.256Z,98134.09
2023-03-08T15:42:36.816Z,98131.78
2023-03-08T15:43:59.438Z,98134.84
2023-03-08T15:45:21.994Z,98129.09
2023-03-08T15:46:44.369Z,98126.00
2023-03-08T15:48:08.651Z,98119.00
2023-03-08T15:49:30.913Z,98124.53
2023-03-08T15:50:53.452Z,98114.66
2023-03-08T15:52:16.310Z,98104.09
2023-03-08T15:53:38.877Z,98125.75
2023-03-08T15:55:03.093Z,98114.59
2023-03-08T15:56:26.294Z,98127.72
2023-03-08T15:57:49.385Z,98128.75
2023-03-08T15:59:23.424Z,98101.94
2023-03-08T16:00:49.428Z,98117.16
2023-03-08T16:02:16.458Z,98133.97
2023-03-08T16:03:39.319Z,98084.34
2023-03-08T16:05:02.382Z,98117.38
2023-03-08T16:06:28.582Z,98073.84
2023-03-08T16:07:55.568Z,98066.25
2023-03-08T16:09:25.710Z,98092.84
2023-03-08T16:10:51.092Z,98078.22
2023-03-08T16:12:14.813Z,98110.94
2023-03-08T16:13:37.003Z,98110.13
2023-03-08T16:14:59.920Z,98079.03
2023-03-08T16:16:45.112Z,98107.28
2023-03-08T16:18:16.578Z,98085.81
2023-03-08T16:19:45.388Z,98080.69
2023-03-08T16:21:16.022Z,98082.28
2023-03-08T16:22:43.399Z,98099.66
2023-03-08T16:24:17.082Z,98075.53
2023-03-08T16:26:13.991Z,98034.38
2023-03-08T16:27:51.840Z,98095.94
2023-03-08T16:29:18.791Z,98088.97
2023-03-08T16:30:51.944Z,98033.66
2023-03-08T16:32:16.355Z,98060.91
2023-03-08T16:33:39.946Z,98062.56
2023-03-08T16:35:04.442Z,98072.47
2023-03-08T16:36:27.317Z,98016.63
2023-03-08T16:37:55.396Z,98067.50
2023-03-08T16:39:52.576Z,98053.91
2023-03-08T16:41:37.362Z,98058.84
2023-03-08T16:43:08.485Z,98028.41
2023-03-08T16:44:32.040Z,98073.22
2023-03-08T16:45:59.613Z,98043.00
2023-03-08T16:47:43.969Z,98050.34
2023-03-08T16:49:10.354Z,98076.28
2023-03-08T16:50:32.816Z,98042.31
2023-03-08T16:51:55.634Z,98074.81
2023-03-08T16:53:18.400Z,98052.38
2023-03-08T16:54:41.500Z,98080.56
2023-03-08T16:56:04.690Z,98068.69
2023-03-08T16:57:33.253Z,98068.09
2023-03-08T16:59:31.403Z,98066.81
2023-03-08T17:00:55.814Z,98057.16
2023-03-08T17:02:23.317Z,97995.81
2023-03-08T17:03:50.621Z,98053.50
2023-03-08T17:05:14.216Z,98036.41
2023-03-08T17:06:36.631Z,98049.16
2023-03-08T17:07:59.128Z,98013.31
2023-03-08T17:09:22.090Z,98056.34
2023-03-08T17:10:46.329Z,98015.00
2023-03-08T17:12:10.432Z,98031.31
2023-03-08T17:13:33.484Z,98010.28
2023-03-08T17:14:57.853Z,98020.00
2023-03-08T17:16:21.407Z,98038.91
2023-03-08T17:17:47.032Z,98020.34
2023-03-08T17:19:10.652Z,98015.22
2023-03-08T17:20:33.333Z,98037.66
2023-03-08T17:21:56.039Z,98033.16
2023-03-08T17:23:23.567Z,98040.34
2023-03-08T17:24:49.541Z,98041.16
2023-03-08T17:26:16.341Z,98015.41
2023-03-08T17:27:39.295Z,98041.97
2023-03-08T17:29:02.036Z,98017.75
2023-03-08T17:30:26.537Z,97991.38
2023-03-08T17:31:52.774Z,97975.16
2023-03-08T17:33:17.843Z,97995.88
2023-03-08T17:34:40.282Z,98020.41
2023-03-08T17:36:03.216Z,97970.38
2023-03-08T17:37:25.942Z,98009.69
2023-03-08T17:39:01.776Z,97981.06
2023-03-08T17:40:26.787Z,98009.50
2023-03-08T17:41:49.309Z,97958.22
2023-03-08T17:43:11.960Z,97986.84
2023-03-08T17:44:35.064Z,98013.00